Time;durP1;ratioP1;P1;durP2;ratioP2;P2;SDS_P1;SDS_P2;PMS_P1;PMS_P2;Temp;Humidity;BMP_temperature;BMP_pressure;BME280_temperature;BME280_humidity;BME280_pressure;Samples;Min_cycle;Max_cycle;Signal;HPM_P1;HPM_P2
2021/08/20 00:00:27;;;;;;;8.30;3.92;;;;;;;;;;5067198;28;20465;-59
2021/08/20 00:02:52;;;;;;;8.30;3.60;;;;;;;;;;5067677;28;20040;-59
2021/08/20 00:05:19;;;;;;;8.38;4.20;;;;;;;;;;5073339;28;20098;-59
2021/08/20 00:07:44;;;;;;;12.05;4.57;;;;;;;;;;5066971;28;20135;-59
2021/08/20 00:10:10;;;;;;;7.72;3.70;;;;;;;;;;5065752;28;20028;-59
2021/08/20 00:12:36;;;;;;;8.00;4.00;;;;;;;;;;5066179;28;20031;-59
2021/08/20 00:15:03;;;;;;;7.93;3.88;;;;;;;;;;5065892;28;20024;-59
2021/08/20 00:17:28;;;;;;;8.07;4.50;;;;;;;;;;5066041;28;20036;-59
2021/08/20 00:19:53;;;;;;;15.18;4.55;;;;;;;;;;5068022;28;20394;-59
2021/08/20 00:22:19;;;;;;;9.45;4.10;;;;;;;;;;5069906;28;20085;-60
2021/08/20 00:24:45;;;;;;;8.32;3.95;;;;;;;;;;5067725;28;20691;-60
2021/08/20 00:27:10;;;;;;;8.40;3.65;;;;;;;;;;5068940;28;21208;-59
2021/08/20 00:29:36;;;;;;;9.45;4.35;;;;;;;;;;5066801;28;20055;-59
2021/08/20 00:32:02;;;;;;;9.82;4.55;;;;;;;;;;5065708;28;20498;-59
2021/08/20 00:34:27;;;;;;;17.98;4.25;;;;;;;;;;5067263;28;20111;-59
2021/08/20 00:36:53;;;;;;;7.05;4.28;;;;;;;;;;5064185;28;20498;-60
2021/08/20 00:39:18;;;;;;;8.15;4.40;;;;;;;;;;5065593;28;20028;-59
2021/08/20 00:41:44;;;;;;;8.32;4.38;;;;;;;;;;5068522;28;20107;-59
2021/08/20 00:44:10;;;;;;;9.38;4.22;;;;;;;;;;5067017;28;20375;-59
2021/08/20 00:46:36;;;;;;;7.97;4.05;;;;;;;;;;5062108;28;20506;-59
2021/08/20 00:49:02;;;;;;;7.35;4.18;;;;;;;;;;5070397;28;20047;-59
2021/08/20 00:51:34;;;;;;;9.82;4.15;;;;;;;;;;5069405;28;20028;-59
2021/08/20 00:53:59;;;;;;;10.95;4.55;;;;;;;;;;5071364;28;20013;-59
2021/08/20 00:56:25;;;;;;;11.32;4.00;;;;;;;;;;5069586;28;20115;-59
2021/08/20 00:58:51;;;;;;;7.75;3.97;;;;;;;;;;5071415;28;20044;-59
2021/08/20 01:01:17;;;;;;;9.60;4.20;;;;;;;;;;5072549;28;20035;-59
2021/08/20 01:03:43;;;;;;;10.00;4.30;;;;;;;;;;5074148;28;20036;-59
2021/08/20 01:06:09;;;;;;;8.65;4.15;;;;;;;;;;5069342;28;20414;-59
2021/08/20 01:08:36;;;;;;;8.02;3.67;;;;;;;;;;5068047;28;20032;-59
2021/08/20 01:11:04;;;;;;;9.07;4.32;;;;;;;;;;5069865;28;20542;-59
2021/08/20 01:13:38;;;;;;;7.60;4.20;;;;;;;;;;5071149;28;20040;-59
2021/08/20 01:16:04;;;;;;;10.45;3.88;;;;;;;;;;5071464;28;20028;-59
2021/08/20 01:18:34;;;;;;;10.45;4.45;;;;;;;;;;5072163;28;20498;-59
2021/08/20 01:21:04;;;;;;;7.20;3.95;;;;;;;;;;5072847;28;20035;-59
2021/08/20 01:23:29;;;;;;;;;;;;;;;;;;5071303;28;20026;-60
2021/08/20 01:25:55;;;;;;;9.75;3.83;;;;;;;;;;5074526;28;19999;-59
2021/08/20 01:28:24;;;;;;;7.85;3.55;;;;;;;;;;5073320;28;20063;-59
2021/08/20 01:30:50;;;;;;;8.60;4.20;;;;;;;;;;5070837;28;20024;-59
2021/08/20 01:33:16;;;;;;;7.68;3.78;;;;;;;;;;5069171;28;20126;-59
2021/08/20 01:35:41;;;;;;;8.20;4.15;;;;;;;;;;5069563;28;20020;-60
2021/08/20 01:38:07;;;;;;;8.65;4.13;;;;;;;;;;5069406;28;20036;-60
2021/08/20 01:40:32;;;;;;;9.90;4.60;;;;;;;;;;5069709;28;20530;-60
2021/08/20 01:42:58;;;;;;;7.72;4.00;;;;;;;;;;5068269;28;20032;-60
2021/08/20 01:45:23;;;;;;;6.57;3.80;;;;;;;;;;5067197;28;20029;-60
2021/08/20 01:47:49;;;;;;;6.25;3.33;;;;;;;;;;5073046;28;20021;-60
2021/08/20 01:50:14;;;;;;;8.43;4.18;;;;;;;;;;5070302;28;20319;-60
2021/08/20 01:52:40;;;;;;;7.82;4.35;;;;;;;;;;5070982;28;20032;-60
2021/08/20 01:55:08;;;;;;;6.63;3.83;;;;;;;;;;5067379;28;20430;-60
2021/08/20 01:57:35;;;;;;;8.23;4.30;;;;;;;;;;5069306;28;20051;-60
2021/08/20 02:00:01;;;;;;;6.70;4.03;;;;;;;;;;5068226;28;20135;-60
2021/08/20 02:02:26;;;;;;;11.63;4.18;;;;;;;;;;5070587;28;20032;-60
2021/08/20 02:04:52;;;;;;;6.75;3.97;;;;;;;;;;5068902;28;20035;-60
2021/08/20 02:07:17;;;;;;;7.40;4.57;;;;;;;;;;5068461;28;20403;-60
2021/08/20 02:09:47;;;;;;;6.53;3.22;;;;;;;;;;5070599;28;20036;-60
2021/08/20 02:12:12;;;;;;;7.75;4.15;;;;;;;;;;5070377;28;20517;-60
2021/08/20 02:14:38;;;;;;;11.82;5.20;;;;;;;;;;5068107;28;20029;-61
2021/08/20 02:17:03;;;;;;;7.03;4.30;;;;;;;;;;5068831;28;20028;-60
2021/08/20 02:19:29;;;;;;;6.22;4.13;;;;;;;;;;5067154;28;20032;-60
2021/08/20 02:21:54;;;;;;;8.65;4.43;;;;;;;;;;5070394;28;20483;-60
2021/08/20 02:24:19;;;;;;;8.23;4.05;;;;;;;;;;5071482;28;20036;-60
2021/08/20 02:26:45;;;;;;;8.65;4.20;;;;;;;;;;5069431;28;20048;-60
2021/08/20 02:29:10;;;;;;;9.15;4.30;;;;;;;;;;5070401;28;20033;-60
2021/08/20 02:31:36;;;;;;;9.50;4.93;;;;;;;;;;5072212;28;20025;-60
2021/08/20 02:34:01;;;;;;;9.07;4.82;;;;;;;;;;5072017;28;20032;-60
2021/08/20 02:36:26;;;;;;;7.43;4.78;;;;;;;;;;5068830;28;20047;-60
2021/08/20 02:38:52;;;;;;;7.82;4.43;;;;;;;;;;5069000;28;20033;-60
2021/08/20 02:41:17;;;;;;;11.07;5.28;;;;;;;;;;5069474;28;20025;-60
2021/08/20 02:43:43;;;;;;;10.68;4.97;;;;;;;;;;5073106;28;20037;-60
2021/08/20 02:46:08;;;;;;;8.52;5.20;;;;;;;;;;5073453;28;20027;-60
2021/08/20 02:48:34;;;;;;;12.68;5.75;;;;;;;;;;5067289;28;20498;-60
2021/08/20 02:51:00;;;;;;;10.23;5.25;;;;;;;;;;5073385;28;20020;-60
2021/08/20 02:53:25;;;;;;;13.15;5.60;;;;;;;;;;5068247;28;20020;-60
2021/08/20 02:55:51;;;;;;;12.60;5.28;;;;;;;;;;5071122;28;20025;-60
2021/08/20 02:58:16;;;;;;;10.75;5.05;;;;;;;;;;5069050;28;20107;-60
2021/08/20 03:00:42;;;;;;;12.27;4.80;;;;;;;;;;5065960;28;20016;-60
2021/08/20 03:03:07;;;;;;;12.93;5.32;;;;;;;;;;5067949;28;20032;-60
2021/08/20 03:05:33;;;;;;;9.32;4.80;;;;;;;;;;5071369;28;20024;-60
2021/08/20 03:07:58;;;;;;;9.75;5.10;;;;;;;;;;5070476;28;20025;-60
2021/08/20 03:10:24;;;;;;;13.63;5.25;;;;;;;;;;5068619;28;20036;-60
2021/08/20 03:12:49;;;;;;;9.18;5.20;;;;;;;;;;5070621;28;20384;-60
2021/08/20 03:15:15;;;;;;;9.43;5.03;;;;;;;;;;5068063;28;20275;-60
2021/08/20 03:17:41;;;;;;;10.23;4.78;;;;;;;;;;5069805;28;20440;-60
2021/08/20 03:20:08;;;;;;;8.88;4.60;;;;;;;;;;5069765;28;20016;-60
2021/08/20 03:22:33;;;;;;;8.60;4.88;;;;;;;;;;5066247;28;20566;-59
2021/08/20 03:24:58;;;;;;;9.32;4.57;;;;;;;;;;5071532;28;20119;-59
2021/08/20 03:27:24;;;;;;;9.98;5.03;;;;;;;;;;5070385;28;20042;-59
2021/08/20 03:29:49;;;;;;;11.85;4.78;;;;;;;;;;5071726;28;20032;-59
2021/08/20 03:32:15;;;;;;;8.55;4.55;;;;;;;;;;5066551;28;20116;-59
2021/08/20 03:34:40;;;;;;;11.27;4.72;;;;;;;;;;5065997;28;20016;-59
2021/08/20 03:37:06;;;;;;;7.13;4.50;;;;;;;;;;5066120;28;20087;-59
2021/08/20 03:39:31;;;;;;;7.38;4.00;;;;;;;;;;5063684;28;20025;-59
2021/08/20 03:41:57;;;;;;;7.65;4.82;;;;;;;;;;5066649;28;20086;-59
2021/08/20 03:44:22;;;;;;;8.77;4.47;;;;;;;;;;5066138;28;20025;-59
2021/08/20 03:46:47;;;;;;;8.68;4.28;;;;;;;;;;5066571;28;20032;-59
2021/08/20 03:49:13;;;;;;;9.25;4.78;;;;;;;;;;5071592;28;20028;-59
2021/08/20 03:51:38;;;;;;;8.30;4.68;;;;;;;;;;5072843;28;20509;-60
2021/08/20 03:54:04;;;;;;;12.23;4.80;;;;;;;;;;5067396;28;20016;-59
2021/08/20 03:56:29;;;;;;;8.05;4.82;;;;;;;;;;5065974;28;20027;-59
2021/08/20 03:58:58;;;;;;;9.98;4.50;;;;;;;;;;5066083;28;20036;-59
2021/08/20 04:01:23;;;;;;;10.73;4.97;;;;;;;;;;5067397;28;20139;-59
2021/08/20 04:03:49;;;;;;;11.98;4.78;;;;;;;;;;5070681;28;20425;-59
2021/08/20 04:06:14;;;;;;;12.77;5.00;;;;;;;;;;5066947;28;20033;-59
2021/08/20 04:08:40;;;;;;;10.13;4.80;;;;;;;;;;5065230;28;20060;-60
2021/08/20 04:11:12;;;;;;;13.07;4.57;;;;;;;;;;5066950;28;20039;-59
2021/08/20 04:13:39;;;;;;;7.53;4.35;;;;;;;;;;5066558;28;20037;-59
2021/08/20 04:16:04;;;;;;;10.32;4.32;;;;;;;;;;5068896;28;20486;-59
2021/08/20 04:18:30;;;;;;;7.88;4.40;;;;;;;;;;5068534;28;20116;-59
2021/08/20 04:20:55;;;;;;;9.68;4.10;;;;;;;;;;5067402;28;20024;-59
2021/08/20 04:23:21;;;;;;;7.65;4.18;;;;;;;;;;5067441;28;20505;-59
2021/08/20 04:25:46;;;;;;;8.25;4.28;;;;;;;;;;5072997;28;20048;-59
2021/08/20 04:28:11;;;;;;;9.65;4.40;;;;;;;;;;5064501;28;20172;-59
2021/08/20 04:30:37;;;;;;;9.48;4.63;;;;;;;;;;5068066;28;20032;-59
2021/08/20 04:33:03;;;;;;;12.32;4.45;;;;;;;;;;5064900;28;20107;-59
2021/08/20 04:35:29;;;;;;;7.88;4.03;;;;;;;;;;5066457;28;20651;-60
2021/08/20 04:37:54;;;;;;;7.70;4.20;;;;;;;;;;5065555;28;20447;-60
2021/08/20 04:40:20;;;;;;;10.77;4.63;;;;;;;;;;5065941;28;20403;-60
2021/08/20 04:42:45;;;;;;;8.85;4.55;;;;;;;;;;5061243;28;20082;-59
2021/08/20 04:45:12;;;;;;;7.80;3.72;;;;;;;;;;5067831;28;20036;-60
2021/08/20 04:47:38;;;;;;;9.50;3.97;;;;;;;;;;5069043;28;20036;-61
2021/08/20 04:50:04;;;;;;;9.02;4.38;;;;;;;;;;5071288;28;20024;-60
2021/08/20 04:52:30;;;;;;;7.93;4.15;;;;;;;;;;5064066;28;20028;-60
2021/08/20 04:54:55;;;;;;;6.43;3.72;;;;;;;;;;5068935;28;20021;-59
2021/08/20 04:57:21;;;;;;;6.65;3.55;;;;;;;;;;5069632;28;20024;-60
2021/08/20 04:59:46;;;;;;;8.55;3.63;;;;;;;;;;5069947;28;20036;-59
2021/08/20 05:02:12;;;;;;;6.22;3.47;;;;;;;;;;5067545;28;20031;-60
2021/08/20 05:04:37;;;;;;;6.72;3.72;;;;;;;;;;5066290;28;20055;-60
2021/08/20 05:07:04;;;;;;;8.95;3.60;;;;;;;;;;5066835;28;20032;-60
2021/08/20 05:09:31;;;;;;;7.32;3.50;;;;;;;;;;5064607;28;20155;-60
2021/08/20 05:11:57;;;;;;;6.57;3.60;;;;;;;;;;5066408;28;20650;-60
2021/08/20 05:14:22;;;;;;;7.80;3.53;;;;;;;;;;5063558;28;20111;-60
2021/08/20 05:16:48;;;;;;;7.10;3.90;;;;;;;;;;5064115;28;20024;-60
2021/08/20 05:19:17;;;;;;;7.78;3.75;;;;;;;;;;5063465;28;20372;-60
2021/08/20 05:21:42;;;;;;;8.70;3.13;;;;;;;;;;5064398;28;20025;-60
2021/08/20 05:24:08;;;;;;;8.25;3.40;;;;;;;;;;5067541;28;20317;-60
2021/08/20 05:26:33;;;;;;;7.85;3.17;;;;;;;;;;5065793;28;20399;-60
2021/08/20 05:28:59;;;;;;;6.93;3.05;;;;;;;;;;5065763;28;20027;-60
2021/08/20 05:31:24;;;;;;;7.13;3.35;;;;;;;;;;5061060;28;20451;-60
2021/08/20 05:33:50;;;;;;;6.55;3.00;;;;;;;;;;5073475;28;20043;-60
2021/08/20 05:36:15;;;;;;;6.28;3.70;;;;;;;;;;5069785;28;20032;-60
2021/08/20 05:38:40;;;;;;;6.00;3.30;;;;;;;;;;5070155;28;20553;-60
2021/08/20 05:41:06;;;;;;;6.65;3.30;;;;;;;;;;5068108;28;20016;-60
2021/08/20 05:43:32;;;;;;;4.85;3.05;;;;;;;;;;5069120;28;20028;-60
2021/08/20 05:45:58;;;;;;;6.28;3.67;;;;;;;;;;5069807;28;20470;-60
2021/08/20 05:48:23;;;;;;;5.97;3.30;;;;;;;;;;5072618;28;20066;-60
2021/08/20 05:50:49;;;;;;;5.45;3.00;;;;;;;;;;5069437;28;20448;-59
2021/08/20 05:53:15;;;;;;;5.65;3.40;;;;;;;;;;5069202;28;20124;-60
2021/08/20 05:55:40;;;;;;;7.35;3.58;;;;;;;;;;5071981;28;20031;-60
2021/08/20 05:58:05;;;;;;;6.20;3.53;;;;;;;;;;5068508;28;20559;-60
2021/08/20 06:00:32;;;;;;;7.35;3.40;;;;;;;;;;5067254;28;20483;-60
2021/08/20 06:02:58;;;;;;;11.23;3.78;;;;;;;;;;5067326;28;20050;-60
2021/08/20 06:05:23;;;;;;;8.00;3.50;;;;;;;;;;5071128;28;20112;-60
2021/08/20 06:07:49;;;;;;;10.35;3.30;;;;;;;;;;5067451;28;20351;-60
2021/08/20 06:10:15;;;;;;;6.85;3.17;;;;;;;;;;5069467;28;20047;-60
2021/08/20 06:12:40;;;;;;;7.18;3.47;;;;;;;;;;5068308;28;20017;-60
2021/08/20 06:15:06;;;;;;;8.65;3.60;;;;;;;;;;5067329;28;20506;-60
2021/08/20 06:17:32;;;;;;;7.30;3.20;;;;;;;;;;5068865;28;20407;-60
2021/08/20 06:19:57;;;;;;;7.82;4.53;;;;;;;;;;5070732;28;20189;-60
2021/08/20 06:22:22;;;;;;;7.78;4.65;;;;;;;;;;5071290;28;20490;-60
2021/08/20 06:24:48;;;;;;;8.40;4.22;;;;;;;;;;5062451;28;20086;-60
2021/08/20 06:27:14;;;;;;;8.05;4.10;;;;;;;;;;5066602;28;20550;-60
2021/08/20 06:29:39;;;;;;;10.48;4.50;;;;;;;;;;5073498;28;20040;-60
2021/08/20 06:32:05;;;;;;;7.82;4.65;;;;;;;;;;5069534;28;20040;-60
2021/08/20 06:34:32;;;;;;;9.52;4.32;;;;;;;;;;5065349;28;20028;-60
2021/08/20 06:36:58;;;;;;;7.03;4.25;;;;;;;;;;5067010;28;20367;-60
2021/08/20 06:39:23;;;;;;;8.52;4.05;;;;;;;;;;5068529;28;20035;-60
2021/08/20 06:41:49;;;;;;;7.60;4.00;;;;;;;;;;5070228;28;20093;-60
2021/08/20 06:44:14;;;;;;;7.00;3.53;;;;;;;;;;5067485;28;20299;-60
2021/08/20 06:46:39;;;;;;;7.22;4.00;;;;;;;;;;5067023;28;20126;-60
2021/08/20 06:49:05;;;;;;;7.80;3.60;;;;;;;;;;5068710;28;20024;-60
2021/08/20 06:51:31;;;;;;;6.80;4.13;;;;;;;;;;5068807;28;20033;-60
2021/08/20 06:53:56;;;;;;;6.47;4.10;;;;;;;;;;5071967;28;20027;-60
2021/08/20 06:56:22;;;;;;;14.40;4.70;;;;;;;;;;5064773;28;20040;-60
2021/08/20 06:58:47;;;;;;;7.68;4.55;;;;;;;;;;5063333;28;20094;-60
2021/08/20 07:01:13;;;;;;;6.55;3.92;;;;;;;;;;5068478;28;20052;-60
2021/08/20 07:03:38;;;;;;;13.65;5.10;;;;;;;;;;5068442;28;20546;-61
2021/08/20 07:06:04;;;;;;;10.77;5.50;;;;;;;;;;5070399;28;20090;-59
2021/08/20 07:08:29;;;;;;;12.23;5.13;;;;;;;;;;5068853;28;20502;-60
2021/08/20 07:10:55;;;;;;;7.88;4.10;;;;;;;;;;5066323;28;20289;-60
2021/08/20 07:13:21;;;;;;;10.63;4.82;;;;;;;;;;5066557;28;20041;-59
2021/08/20 07:15:47;;;;;;;8.70;4.93;;;;;;;;;;5066469;28;20390;-59
2021/08/20 07:18:12;;;;;;;13.98;6.90;;;;;;;;;;5064906;28;20032;-60
2021/08/20 07:20:38;;;;;;;14.27;5.65;;;;;;;;;;5064792;28;20054;-59
2021/08/20 07:23:03;;;;;;;8.32;4.85;;;;;;;;;;5065514;28;20023;-59
2021/08/20 07:25:29;;;;;;;9.70;4.85;;;;;;;;;;5070276;28;20059;-60
2021/08/20 07:27:54;;;;;;;10.30;5.22;;;;;;;;;;5065595;28;20497;-59
2021/08/20 07:30:19;;;;;;;8.77;4.85;;;;;;;;;;5067579;28;20134;-59
2021/08/20 07:32:45;;;;;;;10.90;4.63;;;;;;;;;;5064888;28;20040;-60
2021/08/20 07:35:11;;;;;;;8.45;4.85;;;;;;;;;;5066306;28;20055;-60
2021/08/20 07:37:37;;;;;;;10.90;4.35;;;;;;;;;;5066631;28;20103;-60
2021/08/20 07:40:04;;;;;;;11.30;4.97;;;;;;;;;;5063698;28;20028;-60
2021/08/20 07:42:30;;;;;;;8.65;4.53;;;;;;;;;;5065220;28;20041;-60
2021/08/20 07:44:55;;;;;;;10.55;4.85;;;;;;;;;;5065614;28;20035;-60
2021/08/20 07:47:21;;;;;;;10.30;4.90;;;;;;;;;;5068634;28;20028;-60
2021/08/20 07:49:46;;;;;;;10.35;5.30;;;;;;;;;;5068864;28;20491;-60
2021/08/20 07:52:12;;;;;;;9.70;5.47;;;;;;;;;;5063787;28;20025;-60
2021/08/20 07:54:37;;;;;;;11.20;5.65;;;;;;;;;;5067917;28;20443;-60
2021/08/20 07:57:03;;;;;;;12.80;5.55;;;;;;;;;;5066437;28;20027;-60
2021/08/20 07:59:29;;;;;;;12.05;6.03;;;;;;;;;;5065526;28;20446;-60
2021/08/20 08:01:54;;;;;;;10.80;5.20;;;;;;;;;;5065452;28;20035;-60
2021/08/20 08:04:19;;;;;;;11.65;4.80;;;;;;;;;;5070029;28;20152;-60
2021/08/20 08:06:45;;;;;;;10.85;5.32;;;;;;;;;;5066320;28;20620;-61
2021/08/20 08:09:10;;;;;;;10.50;5.45;;;;;;;;;;5066427;28;20021;-60
2021/08/20 08:11:35;;;;;;;12.52;5.55;;;;;;;;;;5063906;28;20166;-60
2021/08/20 08:14:08;;;;;;;10.90;4.70;;;;;;;;;;5064259;28;20020;-60
2021/08/20 08:16:35;;;;;;;10.15;5.60;;;;;;;;;;5062053;28;20048;-60
2021/08/20 08:19:03;;;;;;;13.27;6.40;;;;;;;;;;5065322;28;20055;-60
2021/08/20 08:21:28;;;;;;;13.75;6.03;;;;;;;;;;5065595;28;20552;-60
2021/08/20 08:23:54;;;;;;;11.20;6.10;;;;;;;;;;5067397;28;20074;-60
2021/08/20 08:26:20;;;;;;;16.10;6.63;;;;;;;;;;5070041;28;20051;-60
2021/08/20 08:28:45;;;;;;;13.60;5.88;;;;;;;;;;5067714;28;20115;-60
2021/08/20 08:31:10;;;;;;;13.77;6.10;;;;;;;;;;5066552;28;20479;-60
2021/08/20 08:33:36;;;;;;;12.50;5.55;;;;;;;;;;5068162;28;20403;-60
2021/08/20 08:36:01;;;;;;;14.75;6.20;;;;;;;;;;5067222;28;20024;-60
2021/08/20 08:38:27;;;;;;;10.48;5.60;;;;;;;;;;5064807;28;20161;-60
2021/08/20 08:40:52;;;;;;;10.65;5.55;;;;;;;;;;5066139;28;20119;-60
2021/08/20 08:43:18;;;;;;;11.20;5.93;;;;;;;;;;5064026;28;20043;-60
2021/08/20 08:45:44;;;;;;;10.95;5.63;;;;;;;;;;5065969;28;20081;-61
2021/08/20 08:48:13;;;;;;;11.90;5.68;;;;;;;;;;5064432;28;20032;-60
2021/08/20 08:50:43;;;;;;;13.55;5.95;;;;;;;;;;5068253;28;20094;-61
2021/08/20 08:53:09;;;;;;;11.05;5.88;;;;;;;;;;5069353;28;20174;-60
2021/08/20 08:55:34;;;;;;;12.00;5.63;;;;;;;;;;5070781;28;20137;-60
2021/08/20 08:57:59;;;;;;;14.73;6.57;;;;;;;;;;5067218;28;20030;-60
2021/08/20 09:00:36;;;;;;;11.75;5.80;;;;;;;;;;5065393;28;20089;-60
2021/08/20 09:03:03;;;;;;;10.65;5.05;;;;;;;;;;5065782;28;20103;-60
2021/08/20 09:05:46;;;;;;;8.07;4.72;;;;;;;;;;5068211;28;20068;-60
2021/08/20 09:08:17;;;;;;;11.43;5.32;;;;;;;;;;5064921;28;20082;-61
2021/08/20 09:11:00;;;;;;;10.85;5.93;;;;;;;;;;5069929;28;20040;-60
2021/08/20 09:13:27;;;;;;;10.63;5.78;;;;;;;;;;5071969;28;20032;-60
2021/08/20 09:16:07;;;;;;;9.57;5.03;;;;;;;;;;5068649;28;20039;-61
2021/08/20 09:18:33;;;;;;;9.50;5.13;;;;;;;;;;5067513;28;20028;-61
2021/08/20 09:20:59;;;;;;;7.93;4.57;;;;;;;;;;5067615;28;20098;-61
2021/08/20 09:23:26;;;;;;;7.50;4.30;;;;;;;;;;5071209;28;20392;-60
2021/08/20 09:25:52;;;;;;;10.55;5.35;;;;;;;;;;5072881;28;20030;-60
2021/08/20 09:28:27;;;;;;;10.43;6.07;;;;;;;;;;5069742;28;20097;-60
2021/08/20 09:30:57;;;;;;;14.55;6.80;;;;;;;;;;5071538;28;20032;-60
2021/08/20 09:33:33;;;;;;;8.77;4.63;;;;;;;;;;5068784;28;20031;-60
2021/08/20 09:36:09;;;;;;;9.45;5.00;;;;;;;;;;5069844;28;20081;-60
2021/08/20 09:38:49;;;;;;;9.65;5.55;;;;;;;;;;5068589;28;20572;-60
2021/08/20 09:41:24;;;;;;;8.30;5.07;;;;;;;;;;5066987;28;20040;-60
2021/08/20 09:43:55;;;;;;;11.10;4.97;;;;;;;;;;5067865;28;20047;-60
2021/08/20 09:46:21;;;;;;;8.00;4.70;;;;;;;;;;5064133;28;20044;-60
2021/08/20 09:48:53;;;;;;;7.78;4.63;;;;;;;;;;5068026;28;20024;-60
2021/08/20 09:51:37;;;;;;;6.93;4.38;;;;;;;;;;5071659;28;20051;-60
2021/08/20 09:54:12;;;;;;;9.77;4.93;;;;;;;;;;5074737;28;20505;-60
2021/08/20 09:56:38;;;;;;;7.85;4.45;;;;;;;;;;5069489;28;20032;-61
2021/08/20 09:59:09;;;;;;;7.13;4.50;;;;;;;;;;5066408;28;20103;-61
2021/08/20 10:01:37;;;;;;;12.00;4.63;;;;;;;;;;5067736;28;20612;-61
2021/08/20 10:04:06;;;;;;;8.85;4.70;;;;;;;;;;5070188;28;20028;-60
2021/08/20 10:06:35;;;;;;;6.90;4.72;;;;;;;;;;5070243;28;20097;-60
2021/08/20 10:09:19;;;;;;;7.57;4.10;;;;;;;;;;5072450;28;20048;-60
2021/08/20 10:11:52;;;;;;;8.63;5.03;;;;;;;;;;5066345;28;20025;-60
2021/08/20 10:14:20;;;;;;;7.63;4.78;;;;;;;;;;5068491;28;20023;-60
2021/08/20 10:16:45;;;;;;;8.50;4.60;;;;;;;;;;5065843;28;20556;-61
2021/08/20 10:19:11;;;;;;;11.00;4.75;;;;;;;;;;5067254;28;20032;-60
2021/08/20 10:21:39;;;;;;;6.68;4.07;;;;;;;;;;5064551;28;20052;-61
2021/08/20 10:24:06;;;;;;;7.20;4.30;;;;;;;;;;5067010;28;20028;-60
2021/08/20 10:26:36;;;;;;;7.72;4.22;;;;;;;;;;5067437;28;20020;-61
2021/08/20 10:29:02;;;;;;;8.32;4.35;;;;;;;;;;5066914;28;20490;-61
2021/08/20 10:31:30;;;;;;;9.65;4.47;;;;;;;;;;5068705;28;20039;-61
2021/08/20 10:33:55;;;;;;;6.88;4.50;;;;;;;;;;5067490;28;20028;-61
2021/08/20 10:36:38;;;;;;;10.45;4.50;;;;;;;;;;5066621;28;20046;-61
2021/08/20 10:39:04;;;;;;;7.43;4.15;;;;;;;;;;5066984;28;20020;-62
2021/08/20 10:41:30;;;;;;;10.75;4.60;;;;;;;;;;5069751;28;20035;-61
2021/08/20 10:44:11;;;;;;;5.50;4.20;;;;;;;;;;5067476;28;20041;-61
2021/08/20 10:46:37;;;;;;;7.68;4.15;;;;;;;;;;5068739;28;20404;-61
2021/08/20 10:49:12;;;;;;;5.88;4.60;;;;;;;;;;5069192;28;20026;-61
2021/08/20 10:51:50;;;;;;;7.05;3.83;;;;;;;;;;5064688;28;20043;-60
2021/08/20 10:54:30;;;;;;;8.15;4.30;;;;;;;;;;5066689;28;20021;-62
2021/08/20 10:56:56;;;;;;;7.13;4.10;;;;;;;;;;5066747;28;20445;-62
2021/08/20 10:59:43;;;;;;;9.15;4.25;;;;;;;;;;5068847;28;20035;-62
2021/08/20 11:02:24;;;;;;;6.60;4.03;;;;;;;;;;5066998;28;20409;-62
2021/08/20 11:05:00;;;;;;;6.18;4.22;;;;;;;;;;5052834;28;20079;-62
2021/08/20 11:07:34;;;;;;;6.65;4.53;;;;;;;;;;5048882;28;20138;-62
2021/08/20 11:10:01;;;;;;;9.82;4.10;;;;;;;;;;5047455;28;20032;-62
2021/08/20 11:12:58;;;;;;;6.25;3.92;;;;;;;;;;5046447;28;20025;-62
2021/08/20 11:15:23;;;;;;;6.65;3.95;;;;;;;;;;5045706;28;20025;-62
2021/08/20 11:17:57;;;;;;;9.80;5.18;;;;;;;;;;5062177;28;20431;-62
2021/08/20 11:20:27;;;;;;;11.88;5.95;;;;;;;;;;5063941;28;20052;-62
2021/08/20 11:23:07;;;;;;;12.57;5.22;;;;;;;;;;5047648;28;20028;-62
2021/08/20 11:25:39;;;;;;;11.25;5.47;;;;;;;;;;5047278;28;20115;-62
2021/08/20 11:28:28;;;;;;;10.90;5.47;;;;;;;;;;5046785;28;20039;-62
2021/08/20 11:30:54;;;;;;;;;;;;;;;;;;5048308;28;20455;-62
2021/08/20 11:33:28;;;;;;;10.70;5.32;;;;;;;;;;5044169;28;19917;-61
2021/08/20 11:36:04;;;;;;;7.75;4.60;;;;;;;;;;5048502;28;20105;-61
2021/08/20 11:38:33;;;;;;;10.65;5.10;;;;;;;;;;5046485;28;20028;-61
2021/08/20 11:41:22;;;;;;;7.82;5.05;;;;;;;;;;5047115;28;20021;-61
2021/08/20 11:43:54;;;;;;;11.02;5.93;;;;;;;;;;5046510;28;20043;-62
2021/08/20 11:46:21;;;;;;;7.60;4.35;;;;;;;;;;5060040;28;20495;-62
2021/08/20 11:48:58;;;;;;;7.40;4.78;;;;;;;;;;5048510;28;20028;-62
2021/08/20 11:51:25;;;;;;;8.85;4.88;;;;;;;;;;5061145;28;20380;-62
2021/08/20 11:53:51;;;;;;;7.93;5.00;;;;;;;;;;5046461;28;20399;-62
2021/08/20 11:56:17;;;;;;;9.82;4.75;;;;;;;;;;5049176;28;20025;-61
2021/08/20 11:58:43;;;;;;;8.65;5.18;;;;;;;;;;5045667;28;20103;-61
2021/08/20 12:01:28;;;;;;;8.45;5.13;;;;;;;;;;5046172;28;20137;-61
2021/08/20 12:03:59;;;;;;;7.78;4.78;;;;;;;;;;5045645;28;20028;-62
2021/08/20 12:06:26;;;;;;;7.80;4.80;;;;;;;;;;5048487;28;20486;-62
2021/08/20 12:08:57;;;;;;;11.77;4.85;;;;;;;;;;5045628;28;20036;-62
2021/08/20 12:11:25;;;;;;;8.77;4.63;;;;;;;;;;5047624;28;20609;-62
2021/08/20 12:13:53;;;;;;;10.25;4.97;;;;;;;;;;5046665;28;20021;-62
2021/08/20 12:16:31;;;;;;;10.35;4.72;;;;;;;;;;5049538;28;20511;-61
2021/08/20 12:18:58;;;;;;;8.73;4.90;;;;;;;;;;5046142;28;20453;-62
2021/08/20 12:21:24;;;;;;;7.82;5.18;;;;;;;;;;5045424;28;20052;-62
2021/08/20 12:23:57;;;;;;;8.52;4.75;;;;;;;;;;5043238;28;20468;-62
2021/08/20 12:26:23;;;;;;;6.25;4.15;;;;;;;;;;5048383;28;20037;-62
2021/08/20 12:28:50;;;;;;;6.53;4.50;;;;;;;;;;5044023;28;20437;-62
2021/08/20 12:31:20;;;;;;;6.85;4.72;;;;;;;;;;5047488;28;20029;-62
2021/08/20 12:33:58;;;;;;;7.55;4.25;;;;;;;;;;5044206;28;20036;-62
2021/08/20 12:36:23;;;;;;;8.57;4.63;;;;;;;;;;5043603;28;20385;-62
2021/08/20 12:39:06;;;;;;;6.72;4.50;;;;;;;;;;5045638;28;20080;-62
2021/08/20 12:41:31;;;;;;;8.23;4.85;;;;;;;;;;5044663;28;20033;-62
2021/08/20 12:43:57;;;;;;;7.28;4.93;;;;;;;;;;5048699;28;20074;-62
2021/08/20 12:46:34;;;;;;;8.52;5.60;;;;;;;;;;5050822;28;20078;-62
2021/08/20 12:49:01;;;;;;;7.75;4.93;;;;;;;;;;5047184;28;20021;-62
2021/08/20 12:51:27;;;;;;;14.25;6.07;;;;;;;;;;5052631;28;20094;-62
2021/08/20 12:54:10;;;;;;;7.90;5.55;;;;;;;;;;5048897;28;20476;-63
2021/08/20 12:56:40;;;;;;;9.23;5.57;;;;;;;;;;5050212;28;20376;-62
2021/08/20 12:59:08;;;;;;;11.32;5.03;;;;;;;;;;5050094;28;20031;-63
2021/08/20 13:01:35;;;;;;;16.92;5.45;;;;;;;;;;5049956;28;20484;-62
2021/08/20 13:04:01;;;;;;;11.20;5.50;;;;;;;;;;5049625;28;20472;-63
2021/08/20 13:06:27;;;;;;;8.75;5.50;;;;;;;;;;5049473;28;20033;-62
2021/08/20 13:08:52;;;;;;;7.55;5.22;;;;;;;;;;5048446;28;20024;-62
2021/08/20 13:11:18;;;;;;;7.85;5.22;;;;;;;;;;5054264;28;20331;-62
2021/08/20 13:13:44;;;;;;;8.88;5.53;;;;;;;;;;5048818;28;20415;-63
2021/08/20 13:16:09;;;;;;;7.75;5.22;;;;;;;;;;5051003;28;20146;-63
2021/08/20 13:18:35;;;;;;;6.47;4.90;;;;;;;;;;5051150;28;20507;-63
2021/08/20 13:21:01;;;;;;;7.80;4.55;;;;;;;;;;5047511;28;20032;-61
2021/08/20 13:23:28;;;;;;;8.57;5.03;;;;;;;;;;5048587;28;20032;-63
2021/08/20 13:25:53;;;;;;;9.68;4.88;;;;;;;;;;5048435;28;20067;-63
2021/08/20 13:28:19;;;;;;;8.70;5.20;;;;;;;;;;5048390;28;20067;-63
2021/08/20 13:30:45;;;;;;;8.68;4.93;;;;;;;;;;5050609;28;20467;-63
2021/08/20 13:33:10;;;;;;;9.43;4.85;;;;;;;;;;5048483;28;20028;-63
2021/08/20 13:35:37;;;;;;;9.48;4.65;;;;;;;;;;5050014;28;20115;-63
2021/08/20 13:38:03;;;;;;;8.45;5.68;;;;;;;;;;5045567;28;20043;-63
2021/08/20 13:40:29;;;;;;;10.50;5.57;;;;;;;;;;5051735;28;20405;-63
2021/08/20 13:43:01;;;;;;;10.75;5.80;;;;;;;;;;5064451;28;20032;-63
2021/08/20 13:45:26;;;;;;;7.45;5.22;;;;;;;;;;5048623;28;20523;-63
2021/08/20 13:47:51;;;;;;;10.27;5.43;;;;;;;;;;5048505;28;20109;-63
2021/08/20 13:50:17;;;;;;;7.18;4.80;;;;;;;;;;5049186;28;20411;-63
2021/08/20 13:52:42;;;;;;;8.80;5.53;;;;;;;;;;5050404;28;20040;-63
2021/08/20 13:55:08;;;;;;;8.18;4.97;;;;;;;;;;5048756;28;20059;-63
2021/08/20 13:57:34;;;;;;;6.80;5.05;;;;;;;;;;5050348;28;20029;-63
2021/08/20 14:00:00;;;;;;;6.03;4.88;;;;;;;;;;5062625;28;20044;-63
2021/08/20 14:02:26;;;;;;;6.82;4.80;;;;;;;;;;5047307;28;20045;-63
2021/08/20 14:04:52;;;;;;;7.60;5.18;;;;;;;;;;5047667;28;20054;-63
2021/08/20 14:07:17;;;;;;;7.00;4.80;;;;;;;;;;5045895;28;20025;-63
2021/08/20 14:09:43;;;;;;;7.35;5.05;;;;;;;;;;5049511;28;20486;-63
2021/08/20 14:12:08;;;;;;;7.88;5.25;;;;;;;;;;5048212;28;20036;-60
2021/08/20 14:14:34;;;;;;;6.47;4.55;;;;;;;;;;5047941;28;20124;-61
2021/08/20 14:16:59;;;;;;;7.82;5.25;;;;;;;;;;5048300;28;20414;-61
2021/08/20 14:19:25;;;;;;;7.90;5.05;;;;;;;;;;5047643;28;20346;-61
2021/08/20 14:21:50;;;;;;;6.60;4.90;;;;;;;;;;5051970;28;20488;-61
2021/08/20 14:24:16;;;;;;;5.75;4.53;;;;;;;;;;5051498;28;20391;-61
2021/08/20 14:26:42;;;;;;;6.40;4.60;;;;;;;;;;5048821;28;20025;-61
2021/08/20 14:29:07;;;;;;;8.18;5.03;;;;;;;;;;5047664;28;20054;-61
2021/08/20 14:31:33;;;;;;;9.13;5.70;;;;;;;;;;5049450;28;20028;-61
2021/08/20 14:33:58;;;;;;;10.10;5.22;;;;;;;;;;5050955;28;20024;-60
2021/08/20 14:36:26;;;;;;;6.63;4.72;;;;;;;;;;5050346;28;20037;-61
2021/08/20 14:38:51;;;;;;;8.18;5.22;;;;;;;;;;5048668;28;20499;-61
2021/08/20 14:41:17;;;;;;;8.10;5.07;;;;;;;;;;5049719;28;20036;-60